sensor_id;sensor_type;location;lat;lon;timestamp;pressure;altitude;pressure_sealevel;temperature;humidity
47738;BME280;33502;47.182;27.506;2022-12-20T00:00:46;102507.88;;;-6.92;100.00
47738;BME280;33502;47.182;27.506;2022-12-20T00:03:11;102505.31;;;-6.92;100.00
47738;BME280;33502;47.182;27.506;2022-12-20T00:05:39;102495.81;;;-6.93;100.00
47738;BME280;33502;47.182;27.506;2022-12-20T00:08:06;102498.28;;;-6.94;100.00
47738;BME280;33502;47.182;27.506;2022-12-20T00:10:36;102492.63;;;-6.89;100.00
47738;BME280;33502;47.182;27.506;2022-12-20T00:13:02;102490.06;;;-6.89;100.00
47738;BME280;33502;47.182;27.506;2022-12-20T00:15:28;102487.69;;;-6.85;100.00
47738;BME280;33502;47.182;27.506;2022-12-20T00:17:56;102482.09;;;-6.78;100.00
47738;BME280;33502;47.182;27.506;2022-12-20T00:20:22;102487.66;;;-6.72;100.00
47738;BME280;33502;47.182;27.506;2022-12-20T00:22:48;102475.94;;;-6.67;100.00
47738;BME280;33502;47.182;27.506;2022-12-20T00:25:14;102479.50;;;-6.65;100.00
47738;BME280;33502;47.182;27.506;2022-12-20T00:27:40;102478.34;;;-6.70;100.00
47738;BME280;33502;47.182;27.506;2022-12-20T00:30:06;102465.09;;;-6.76;100.00
47738;BME280;33502;47.182;27.506;2022-12-20T00:32:32;102459.63;;;-6.81;100.00
47738;BME280;33502;47.182;27.506;2022-12-20T00:34:58;102465.50;;;-6.83;100.00
47738;BME280;33502;47.182;27.506;2022-12-20T00:37:24;102457.94;;;-6.80;100.00
47738;BME280;33502;47.182;27.506;2022-12-20T00:39:49;102462.56;;;-6.75;100.00
47738;BME280;33502;47.182;27.506;2022-12-20T00:42:15;102462.88;;;-6.70;100.00
47738;BME280;33502;47.182;27.506;2022-12-20T00:44:43;102470.88;;;-6.65;100.00
47738;BME280;33502;47.182;27.506;2022-12-20T00:47:09;102466.91;;;-6.60;100.00
47738;BME280;33502;47.182;27.506;2022-12-20T00:49:35;102470.47;;;-6.58;100.00
47738;BME280;33502;47.182;27.506;2022-12-20T00:52:00;102474.13;;;-6.55;100.00
47738;BME280;33502;47.182;27.506;2022-12-20T00:54:26;102475.88;;;-6.54;100.00
47738;BME280;33502;47.182;27.506;2022-12-20T00:56:52;102464.91;;;-6.51;100.00
47738;BME280;33502;47.182;27.506;2022-12-20T00:59:17;102460.00;;;-6.46;100.00
47738;BME280;33502;47.182;27.506;2022-12-20T01:01:44;102452.13;;;-6.35;100.00
47738;BME280;33502;47.182;27.506;2022-12-20T01:04:11;102438.91;;;-6.26;100.00
47738;BME280;33502;47.182;27.506;2022-12-20T01:06:37;102430.66;;;-6.20;100.00
47738;BME280;33502;47.182;27.506;2022-12-20T01:09:03;102421.13;;;-6.21;100.00
47738;BME280;33502;47.182;27.506;2022-12-20T01:11:33;102419.00;;;-6.14;100.00
47738;BME280;33502;47.182;27.506;2022-12-20T01:14:09;102417.47;;;-6.10;100.00
47738;BME280;33502;47.182;27.506;2022-12-20T01:16:38;102419.09;;;-6.12;100.00
47738;BME280;33502;47.182;27.506;2022-12-20T01:19:05;102422.47;;;-6.13;100.00
47738;BME280;33502;47.182;27.506;2022-12-20T01:21:31;102425.59;;;-6.19;100.00
47738;BME280;33502;47.182;27.506;2022-12-20T01:23:57;102414.81;;;-6.26;100.00
47738;BME280;33502;47.182;27.506;2022-12-20T01:26:25;102412.41;;;-6.23;100.00
47738;BME280;33502;47.182;27.506;2022-12-20T01:28:56;102410.03;;;-6.20;100.00
47738;BME280;33502;47.182;27.506;2022-12-20T01:31:23;102404.03;;;-6.19;100.00
47738;BME280;33502;47.182;27.506;2022-12-20T01:33:50;102402.28;;;-6.05;100.00
47738;BME280;33502;47.182;27.506;2022-12-20T01:36:20;102399.50;;;-5.94;100.00
47738;BME280;33502;47.182;27.506;2022-12-20T01:38:46;102400.72;;;-5.87;100.00
47738;BME280;33502;47.182;27.506;2022-12-20T01:41:20;102397.59;;;-5.81;100.00
47738;BME280;33502;47.182;27.506;2022-12-20T01:46:22;102386.66;;;-5.77;100.00
47738;BME280;33502;47.182;27.506;2022-12-20T01:51:21;102379.00;;;-5.91;100.00
47738;BME280;33502;47.182;27.506;2022-12-20T01:53:51;102378.13;;;-5.91;100.00
47738;BME280;33502;47.182;27.506;2022-12-20T01:56:20;102381.59;;;-5.91;100.00
47738;BME280;33502;47.182;27.506;2022-12-20T01:58:48;102369.91;;;-6.00;100.00
47738;BME280;33502;47.182;27.506;2022-12-20T02:01:15;102363.59;;;-6.05;100.00
47738;BME280;33502;47.182;27.506;2022-12-20T02:03:41;102364.13;;;-6.11;100.00
47738;BME280;33502;47.182;27.506;2022-12-20T02:06:16;102349.34;;;-6.14;100.00
47738;BME280;33502;47.182;27.506;2022-12-20T02:08:44;102341.56;;;-6.15;100.00
47738;BME280;33502;47.182;27.506;2022-12-20T02:28:02;102304.19;;;-6.22;100.00
47738;BME280;33502;47.182;27.506;2022-12-20T02:30:34;102298.94;;;-6.23;100.00
47738;BME280;33502;47.182;27.506;2022-12-20T02:33:09;102291.22;;;-6.23;100.00
47738;BME280;33502;47.182;27.506;2022-12-20T02:35:37;102275.75;;;-6.23;100.00
47738;BME280;33502;47.182;27.506;2022-12-20T02:38:25;102284.19;;;-6.26;100.00
47738;BME280;33502;47.182;27.506;2022-12-20T02:40:59;102285.38;;;-6.21;100.00
47738;BME280;33502;47.182;27.506;2022-12-20T02:43:27;102272.53;;;-6.19;100.00
47738;BME280;33502;47.182;27.506;2022-12-20T02:46:15;102261.00;;;-6.26;100.00
47738;BME280;33502;47.182;27.506;2022-12-20T02:48:43;102254.59;;;-6.33;100.00
47738;BME280;33502;47.182;27.506;2022-12-20T02:51:11;102257.88;;;-6.35;100.00
47738;BME280;33502;47.182;27.506;2022-12-20T02:53:38;102250.69;;;-6.41;100.00
47738;BME280;33502;47.182;27.506;2022-12-20T03:01:40;102223.75;;;-6.46;100.00
47738;BME280;33502;47.182;27.506;2022-12-20T03:04:09;102221.19;;;-6.46;100.00
47738;BME280;33502;47.182;27.506;2022-12-20T03:06:38;102210.81;;;-6.47;100.00
47738;BME280;33502;47.182;27.506;2022-12-20T03:09:04;102207.59;;;-6.43;100.00
47738;BME280;33502;47.182;27.506;2022-12-20T03:11:34;102213.63;;;-6.43;100.00
47738;BME280;33502;47.182;27.506;2022-12-20T03:14:00;102205.13;;;-6.42;100.00
47738;BME280;33502;47.182;27.506;2022-12-20T03:16:26;102219.75;;;-6.41;100.00
47738;BME280;33502;47.182;27.506;2022-12-20T03:18:51;102203.84;;;-6.34;100.00
47738;BME280;33502;47.182;27.506;2022-12-20T03:21:17;102204.28;;;-6.26;100.00
47738;BME280;33502;47.182;27.506;2022-12-20T03:23:43;102206.84;;;-6.26;100.00
47738;BME280;33502;47.182;27.506;2022-12-20T03:26:09;102203.53;;;-6.23;100.00
47738;BME280;33502;47.182;27.506;2022-12-20T03:28:40;102199.53;;;-6.18;100.00
47738;BME280;33502;47.182;27.506;2022-12-20T03:31:10;102201.38;;;-6.16;100.00
47738;BME280;33502;47.182;27.506;2022-12-20T03:33:43;102206.09;;;-6.08;100.00
47738;BME280;33502;47.182;27.506;2022-12-20T03:36:08;102202.09;;;-6.03;100.00
47738;BME280;33502;47.182;27.506;2022-12-20T03:38:35;102199.00;;;-5.96;100.00
47738;BME280;33502;47.182;27.506;2022-12-20T03:41:02;102197.53;;;-5.91;100.00
47738;BME280;33502;47.182;27.506;2022-12-20T03:43:28;102202.06;;;-5.87;100.00
47738;BME280;33502;47.182;27.506;2022-12-20T03:45:54;102209.56;;;-5.92;100.00
47738;BME280;33502;47.182;27.506;2022-12-20T03:48:20;102207.72;;;-5.94;100.00
47738;BME280;33502;47.182;27.506;2022-12-20T03:50:46;102191.59;;;-6.06;100.00
47738;BME280;33502;47.182;27.506;2022-12-20T03:53:12;102189.00;;;-6.06;100.00
47738;BME280;33502;47.182;27.506;2022-12-20T03:55:38;102190.47;;;-5.95;100.00
47738;BME280;33502;47.182;27.506;2022-12-20T03:58:04;102181.19;;;-5.92;100.00
47738;BME280;33502;47.182;27.506;2022-12-20T04:00:32;102172.63;;;-5.91;100.00
47738;BME280;33502;47.182;27.506;2022-12-20T04:03:18;102171.59;;;-5.94;100.00
47738;BME280;33502;47.182;27.506;2022-12-20T04:05:43;102172.63;;;-5.91;100.00
47738;BME280;33502;47.182;27.506;2022-12-20T04:08:10;102175.28;;;-5.89;100.00
47738;BME280;33502;47.182;27.506;2022-12-20T04:10:38;102190.63;;;-5.92;100.00
47738;BME280;33502;47.182;27.506;2022-12-20T04:13:26;102192.72;;;-5.85;100.00
47738;BME280;33502;47.182;27.506;2022-12-20T04:15:52;102190.47;;;-5.79;100.00
47738;BME280;33502;47.182;27.506;2022-12-20T04:18:19;102189.84;;;-5.75;100.00
47738;BME280;33502;47.182;27.506;2022-12-20T04:20:51;102182.34;;;-5.54;100.00
47738;BME280;33502;47.182;27.506;2022-12-20T04:23:22;102166.69;;;-5.40;100.00
47738;BME280;33502;47.182;27.506;2022-12-20T04:25:48;102165.28;;;-5.34;100.00
47738;BME280;33502;47.182;27.506;2022-12-20T04:28:16;102155.13;;;-5.31;100.00
47738;BME280;33502;47.182;27.506;2022-12-20T04:30:42;102151.72;;;-5.29;100.00
47738;BME280;33502;47.182;27.506;2022-12-20T04:33:08;102151.25;;;-5.22;100.00
47738;BME280;33502;47.182;27.506;2022-12-20T04:35:36;102135.63;;;-5.25;100.00
47738;BME280;33502;47.182;27.506;2022-12-20T04:38:03;102123.97;;;-5.34;100.00
47738;BME280;33502;47.182;27.506;2022-12-20T04:40:29;102121.25;;;-5.37;100.00
47738;BME280;33502;47.182;27.506;2022-12-20T04:42:57;102109.16;;;-5.38;100.00
47738;BME280;33502;47.182;27.506;2022-12-20T04:45:23;102098.81;;;-5.38;100.00
47738;BME280;33502;47.182;27.506;2022-12-20T04:47:50;102081.56;;;-5.39;100.00
47738;BME280;33502;47.182;27.506;2022-12-20T04:50:22;102084.78;;;-5.43;100.00
47738;BME280;33502;47.182;27.506;2022-12-20T04:52:48;102073.75;;;-5.40;100.00
47738;BME280;33502;47.182;27.506;2022-12-20T04:55:39;102074.44;;;-5.43;100.00
47738;BME280;33502;47.182;27.506;2022-12-20T04:58:06;102080.16;;;-5.50;100.00
47738;BME280;33502;47.182;27.506;2022-12-20T05:00:33;102064.66;;;-5.50;100.00
47738;BME280;33502;47.182;27.506;2022-12-20T05:03:08;102065.44;;;-5.51;100.00
47738;BME280;33502;47.182;27.506;2022-12-20T05:05:33;102063.09;;;-5.46;100.00
47738;BME280;33502;47.182;27.506;2022-12-20T05:07:59;102049.00;;;-5.53;100.00
47738;BME280;33502;47.182;27.506;2022-12-20T05:10:27;102041.53;;;-5.65;100.00
47738;BME280;33502;47.182;27.506;2022-12-20T05:12:53;102032.66;;;-5.70;100.00
47738;BME280;33502;47.182;27.506;2022-12-20T05:15:32;102041.78;;;-5.77;100.00
47738;BME280;33502;47.182;27.506;2022-12-20T05:17:58;102035.16;;;-5.72;100.00
47738;BME280;33502;47.182;27.506;2022-12-20T05:20:27;102028.53;;;-5.66;100.00
47738;BME280;33502;47.182;27.506;2022-12-20T05:22:55;102029.50;;;-5.64;100.00
47738;BME280;33502;47.182;27.506;2022-12-20T05:25:47;102039.16;;;-5.60;100.00
47738;BME280;33502;47.182;27.506;2022-12-20T05:28:34;102049.66;;;-5.57;100.00
47738;BME280;33502;47.182;27.506;2022-12-20T05:31:01;102057.16;;;-5.62;100.00
47738;BME280;33502;47.182;27.506;2022-12-20T05:33:30;102059.78;;;-5.44;100.00
47738;BME280;33502;47.182;27.506;2022-12-20T05:35:56;102061.06;;;-5.36;100.00
47738;BME280;33502;47.182;27.506;2022-12-20T05:38:23;102048.44;;;-5.29;100.00
47738;BME280;33502;47.182;27.506;2022-12-20T05:40:49;102050.38;;;-5.25;100.00
47738;BME280;33502;47.182;27.506;2022-12-20T05:43:17;102042.78;;;-5.22;100.00
47738;BME280;33502;47.182;27.506;2022-12-20T05:45:49;102044.41;;;-5.24;100.00
47738;BME280;33502;47.182;27.506;2022-12-20T05:48:19;102032.31;;;-5.25;100.00
47738;BME280;33502;47.182;27.506;2022-12-20T05:50:46;102030.44;;;-5.28;100.00
47738;BME280;33502;47.182;27.506;2022-12-20T05:53:27;102038.56;;;-5.38;100.00
47738;BME280;33502;47.182;27.506;2022-12-20T05:55:57;102047.84;;;-5.42;100.00
47738;BME280;33502;47.182;27.506;2022-12-20T05:58:32;102044.91;;;-5.32;100.00
47738;BME280;33502;47.182;27.506;2022-12-20T06:01:01;102035.09;;;-5.03;100.00
47738;BME280;33502;47.182;27.506;2022-12-20T06:03:28;102028.31;;;-4.83;100.00
47738;BME280;33502;47.182;27.506;2022-12-20T06:05:56;102032.66;;;-4.64;100.00
47738;BME280;33502;47.182;27.506;2022-12-20T06:08:26;102036.31;;;-4.21;100.00
47738;BME280;33502;47.182;27.506;2022-12-20T06:10:53;102025.50;;;-3.31;100.00
47738;BME280;33502;47.182;27.506;2022-12-20T06:13:20;102029.94;;;-2.40;100.00
47738;BME280;33502;47.182;27.506;2022-12-20T06:15:47;102027.69;;;-1.83;95.60
47738;BME280;33502;47.182;27.506;2022-12-20T06:18:13;102033.72;;;-1.32;93.33
47738;BME280;33502;47.182;27.506;2022-12-20T06:20:39;102038.22;;;-1.54;90.11
47738;BME280;33502;47.182;27.506;2022-12-20T06:23:06;102019.66;;;-1.65;89.43
47738;BME280;33502;47.182;27.506;2022-12-20T06:25:40;102022.03;;;-1.71;90.30
47738;BME280;33502;47.182;27.506;2022-12-20T06:28:06;102017.31;;;-1.83;91.98
47738;BME280;33502;47.182;27.506;2022-12-20T06:30:32;102022.41;;;-2.10;93.23
47738;BME280;33502;47.182;27.506;2022-12-20T06:33:06;102017.22;;;-2.10;94.43
47738;BME280;33502;47.182;27.506;2022-12-20T06:35:32;102015.91;;;-1.97;94.10
47738;BME280;33502;47.182;27.506;2022-12-20T06:37:58;102016.69;;;-1.75;94.47
47738;BME280;33502;47.182;27.506;2022-12-20T06:40:25;102020.19;;;-1.99;94.00
47738;BME280;33502;47.182;27.506;2022-12-20T06:42:51;102015.44;;;-2.35;95.35
47738;BME280;33502;47.182;27.506;2022-12-20T06:45:21;102014.03;;;-2.72;98.88
47738;BME280;33502;47.182;27.506;2022-12-20T06:47:47;102012.72;;;-2.83;100.00
47738;BME280;33502;47.182;27.506;2022-12-20T06:50:13;102014.56;;;-2.81;100.00
47738;BME280;33502;47.182;27.506;2022-12-20T06:52:40;102009.66;;;-2.96;100.00
47738;BME280;33502;47.182;27.506;2022-12-20T06:55:06;102002.69;;;-2.97;100.00
47738;BME280;33502;47.182;27.506;2022-12-20T06:57:35;101990.75;;;-2.93;100.00
47738;BME280;33502;47.182;27.506;2022-12-20T07:00:03;101978.78;;;-2.89;100.00
47738;BME280;33502;47.182;27.506;2022-12-20T07:02:29;101981.31;;;-2.91;100.00
47738;BME280;33502;47.182;27.506;2022-12-20T07:04:55;101983.25;;;-2.85;100.00
47738;BME280;33502;47.182;27.506;2022-12-20T07:07:21;101984.56;;;-2.74;100.00
47738;BME280;33502;47.182;27.506;2022-12-20T07:09:47;101984.63;;;-2.72;100.00
47738;BME280;33502;47.182;27.506;2022-12-20T07:12:12;101989.38;;;-2.61;100.00
47738;BME280;33502;47.182;27.506;2022-12-20T07:14:38;101975.13;;;-2.49;100.00
47738;BME280;33502;47.182;27.506;2022-12-20T07:17:04;101978.41;;;-2.31;100.00
47738;BME280;33502;47.182;27.506;2022-12-20T07:19:32;101971.91;;;-2.18;98.61
47738;BME280;33502;47.182;27.506;2022-12-20T07:21:58;101969.31;;;-1.94;97.75
47738;BME280;33502;47.182;27.506;2022-12-20T07:24:23;101972.22;;;-1.85;96.01
47738;BME280;33502;47.182;27.506;2022-12-20T07:26:49;101972.63;;;-1.72;94.89
47738;BME280;33502;47.182;27.506;2022-12-20T07:29:15;101969.16;;;-1.73;93.57
47738;BME280;33502;47.182;27.506;2022-12-20T07:31:40;101975.56;;;-1.38;93.08
47738;BME280;33502;47.182;27.506;2022-12-20T07:34:06;101971.47;;;-0.13;85.04
47738;BME280;33502;47.182;27.506;2022-12-20T07:36:32;101951.13;;;0.39;81.46
47738;BME280;33502;47.182;27.506;2022-12-20T07:38:58;101941.06;;;1.30;76.94
47738;BME280;33502;47.182;27.506;2022-12-20T07:41:24;101943.56;;;0.86;75.13
47738;BME280;33502;47.182;27.506;2022-12-20T07:43:50;101958.09;;;0.07;80.10
47738;BME280;33502;47.182;27.506;2022-12-20T07:46:16;101930.06;;;-0.35;82.40
47738;BME280;33502;47.182;27.506;2022-12-20T07:48:42;101938.72;;;-0.67;84.26
47738;BME280;33502;47.182;27.506;2022-12-20T07:51:22;101934.56;;;-0.30;84.16
47738;BME280;33502;47.182;27.506;2022-12-20T07:54:40;101933.59;;;1.94;74.48
47738;BME280;33502;47.182;27.506;2022-12-20T07:57:15;101906.72;;;3.13;66.70
47738;BME280;33502;47.182;27.506;2022-12-20T07:59:46;101915.41;;;1.99;70.12
47738;BME280;33502;47.182;27.506;2022-12-20T08:02:17;101915.44;;;2.52;69.09
47738;BME280;33502;47.182;27.506;2022-12-20T08:04:44;101911.91;;;1.51;72.06
47738;BME280;33502;47.182;27.506;2022-12-20T08:07:10;101915.63;;;2.11;71.19
47738;BME280;33502;47.182;27.506;2022-12-20T08:09:40;101894.38;;;1.46;71.49
47738;BME280;33502;47.182;27.506;2022-12-20T08:12:09;101902.63;;;0.84;75.51
47738;BME280;33502;47.182;27.506;2022-12-20T08:14:38;101901.09;;;0.54;77.16
47738;BME280;33502;47.182;27.506;2022-12-20T08:17:04;101899.34;;;0.54;77.26
47738;BME280;33502;47.182;27.506;2022-12-20T08:19:30;101877.13;;;1.10;75.57
47738;BME280;33502;47.182;27.506;2022-12-20T08:21:56;101889.16;;;1.93;72.23
47738;BME280;33502;47.182;27.506;2022-12-20T08:24:21;101878.91;;;2.57;70.00
47738;BME280;33502;47.182;27.506;2022-12-20T08:26:47;101873.47;;;3.07;66.28
47738;BME280;33502;47.182;27.506;2022-12-20T08:29:13;101881.50;;;3.18;64.72
47738;BME280;33502;47.182;27.506;2022-12-20T08:31:40;101868.81;;;3.55;64.63
47738;BME280;33502;47.182;27.506;2022-12-20T08:34:09;101867.91;;;3.50;63.35
47738;BME280;33502;47.182;27.506;2022-12-20T08:36:35;101863.69;;;2.91;65.36
47738;BME280;33502;47.182;27.506;2022-12-20T08:39:04;101859.69;;;3.18;66.70
47738;BME280;33502;47.182;27.506;2022-12-20T08:41:33;101859.88;;;2.69;66.32
47738;BME280;33502;47.182;27.506;2022-12-20T08:43:59;101863.59;;;2.83;66.68
47738;BME280;33502;47.182;27.506;2022-12-20T08:46:25;101858.97;;;3.31;66.25
47738;BME280;33502;47.182;27.506;2022-12-20T08:48:51;101869.47;;;3.32;65.29
47738;BME280;33502;47.182;27.506;2022-12-20T08:51:17;101869.78;;;2.91;65.11
47738;BME280;33502;47.182;27.506;2022-12-20T08:53:42;101865.31;;;2.81;65.44
47738;BME280;33502;47.182;27.506;2022-12-20T08:56:13;101851.91;;;2.58;67.67
47738;BME280;33502;47.182;27.506;2022-12-20T08:58:40;101846.91;;;2.77;68.53
47738;BME280;33502;47.182;27.506;2022-12-20T09:01:11;101837.97;;;3.28;67.55
47738;BME280;33502;47.182;27.506;2022-12-20T09:03:38;101831.22;;;3.48;67.23
47738;BME280;33502;47.182;27.506;2022-12-20T09:06:13;101827.56;;;3.34;66.90
47738;BME280;33502;47.182;27.506;2022-12-20T09:08:39;101815.19;;;3.18;66.41
47738;BME280;33502;47.182;27.506;2022-12-20T09:11:10;101824.97;;;2.67;68.10
47738;BME280;33502;47.182;27.506;2022-12-20T09:13:37;101816.34;;;2.13;70.47
47738;BME280;33502;47.182;27.506;2022-12-20T09:16:04;101816.97;;;1.98;73.15
47738;BME280;33502;47.182;27.506;2022-12-20T09:18:31;101815.63;;;1.68;74.79
47738;BME280;33502;47.182;27.506;2022-12-20T09:21:01;101804.59;;;1.36;75.82
47738;BME280;33502;47.182;27.506;2022-12-20T09:23:29;101807.97;;;1.30;77.28
47738;BME280;33502;47.182;27.506;2022-12-20T09:25:55;101797.06;;;1.53;77.49
47738;BME280;33502;47.182;27.506;2022-12-20T09:28:25;101792.41;;;1.87;76.39
47738;BME280;33502;47.182;27.506;2022-12-20T09:30:51;101798.31;;;2.30;74.47
47738;BME280;33502;47.182;27.506;2022-12-20T09:33:16;101793.00;;;2.24;74.51
47738;BME280;33502;47.182;27.506;2022-12-20T09:35:46;101786.34;;;1.88;75.97
47738;BME280;33502;47.182;27.506;2022-12-20T09:38:12;101786.19;;;1.79;76.83
47738;BME280;33502;47.182;27.506;2022-12-20T09:40:44;101774.72;;;1.69;78.29
47738;BME280;33502;47.182;27.506;2022-12-20T09:43:12;101769.84;;;1.90;77.61
47738;BME280;33502;47.182;27.506;2022-12-20T09:45:39;101765.66;;;2.63;75.67
47738;BME280;33502;47.182;27.506;2022-12-20T09:48:09;101755.78;;;3.15;72.61
47738;BME280;33502;47.182;27.506;2022-12-20T09:53:53;101738.25;;;4.04;68.72
47738;BME280;33502;47.182;27.506;2022-12-20T09:59:02;101715.63;;;4.20;67.61
47738;BME280;33502;47.182;27.506;2022-12-20T10:01:31;101712.94;;;4.12;67.98
47738;BME280;33502;47.182;27.506;2022-12-20T10:04:01;101704.19;;;4.01;68.50
47738;BME280;33502;47.182;27.506;2022-12-20T10:06:33;101693.75;;;4.15;69.09
47738;BME280;33502;47.182;27.506;2022-12-20T10:17:13;101687.63;;;4.13;69.11
47738;BME280;33502;47.182;27.506;2022-12-20T10:22:53;101688.91;;;5.34;65.97
47738;BME280;33502;47.182;27.506;2022-12-20T10:25:24;101675.75;;;5.27;64.52
47738;BME280;33502;47.182;27.506;2022-12-20T10:27:55;101669.59;;;5.04;65.10
47738;BME280;33502;47.182;27.506;2022-12-20T10:30:24;101671.34;;;5.11;65.19
47738;BME280;33502;47.182;27.506;2022-12-20T10:32:53;101666.13;;;5.33;65.11
47738;BME280;33502;47.182;27.506;2022-12-20T10:40:42;101655.59;;;5.05;65.05
47738;BME280;33502;47.182;27.506;2022-12-20T10:43:15;101646.75;;;4.55;66.95
47738;BME280;33502;47.182;27.506;2022-12-20T10:45:45;101647.44;;;4.14;69.31
47738;BME280;33502;47.182;27.506;2022-12-20T10:48:39;101654.38;;;4.06;70.72
47738;BME280;33502;47.182;27.506;2022-12-20T10:53:34;101636.97;;;4.19;70.41
47738;BME280;33502;47.182;27.506;2022-12-20T10:58:53;101618.78;;;4.76;69.77
47738;BME280;33502;47.182;27.506;2022-12-20T11:01:22;101603.97;;;4.85;68.52
47738;BME280;33502;47.182;27.506;2022-12-20T11:03:56;101603.97;;;4.93;69.54
47738;BME280;33502;47.182;27.506;2022-12-20T11:06:27;101593.41;;;4.61;68.47
47738;BME280;33502;47.182;27.506;2022-12-20T11:09:33;101587.31;;;4.74;69.23
47738;BME280;33502;47.182;27.506;2022-12-20T11:11:59;101574.19;;;5.00;68.17
47738;BME280;33502;47.182;27.506;2022-12-20T11:14:25;101572.44;;;5.19;67.50
47738;BME280;33502;47.182;27.506;2022-12-20T11:16:53;101565.47;;;4.86;68.71
47738;BME280;33502;47.182;27.506;2022-12-20T11:19:47;101562.81;;;4.69;70.02
47738;BME280;33502;47.182;27.506;2022-12-20T11:22:35;101551.44;;;5.12;69.39
47738;BME280;33502;47.182;27.506;2022-12-20T11:30:17;101540.06;;;5.23;68.05
47738;BME280;33502;47.182;27.506;2022-12-20T11:41:15;101520.81;;;5.09;67.69
47738;BME280;33502;47.182;27.506;2022-12-20T11:52:09;101506.78;;;4.22;71.11
47738;BME280;33502;47.182;27.506;2022-12-20T11:54:47;101509.38;;;4.16;71.00
47738;BME280;33502;47.182;27.506;2022-12-20T12:00:24;101499.75;;;4.01;71.62
47738;BME280;33502;47.182;27.506;2022-12-20T12:02:55;101497.09;;;4.03;72.70
47738;BME280;33502;47.182;27.506;2022-12-20T12:07:59;101481.34;;;3.89;72.71
47738;BME280;33502;47.182;27.506;2022-12-20T12:10:35;101472.63;;;3.88;73.65
47738;BME280;33502;47.182;27.506;2022-12-20T12:13:13;101470.00;;;3.93;73.09
47738;BME280;33502;47.182;27.506;2022-12-20T12:16:02;101453.38;;;3.89;73.63
47738;BME280;33502;47.182;27.506;2022-12-20T12:18:33;101436.75;;;3.80;73.15
47738;BME280;33502;47.182;27.506;2022-12-20T12:21:07;101450.75;;;3.83;72.92
47738;BME280;33502;47.182;27.506;2022-12-20T12:24:15;101437.66;;;3.86;73.56
47738;BME280;33502;47.182;27.506;2022-12-20T12:26:44;101455.97;;;3.80;72.23
47738;BME280;33502;47.182;27.506;2022-12-20T12:29:14;101431.53;;;3.77;72.68
47738;BME280;33502;47.182;27.506;2022-12-20T12:32:03;101436.75;;;3.75;73.32
47738;BME280;33502;47.182;27.506;2022-12-20T12:43:29;101427.19;;;3.86;74.62
47738;BME280;33502;47.182;27.506;2022-12-20T12:46:17;101435.03;;;3.77;73.86
47738;BME280;33502;47.182;27.506;2022-12-20T12:49:00;101428.88;;;3.69;73.20
47738;BME280;33502;47.182;27.506;2022-12-20T12:51:31;101437.63;;;3.71;74.04
47738;BME280;33502;47.182;27.506;2022-12-20T12:54:23;101428.00;;;3.70;74.90
47738;BME280;33502;47.182;27.506;2022-12-20T12:56:52;101432.31;;;3.57;74.97
47738;BME280;33502;47.182;27.506;2022-12-20T13:04:55;101420.94;;;3.49;77.25
47738;BME280;33502;47.182;27.506;2022-12-20T13:17:56;101428.75;;;3.35;78.26
47738;BME280;33502;47.182;27.506;2022-12-20T13:20:27;101417.38;;;3.31;78.50
47738;BME280;33502;47.182;27.506;2022-12-20T13:25:44;101426.91;;;3.19;79.91
47738;BME280;33502;47.182;27.506;2022-12-20T13:33:39;101399.81;;;3.07;81.93
47738;BME280;33502;47.182;27.506;2022-12-20T13:41:35;101383.38;;;3.41;81.26
47738;BME280;33502;47.182;27.506;2022-12-20T13:49:25;101396.41;;;3.28;80.78
47738;BME280;33502;47.182;27.506;2022-12-20T13:54:40;101398.97;;;3.16;81.70
47738;BME280;33502;47.182;27.506;2022-12-20T13:57:10;101380.59;;;3.04;81.87
47738;BME280;33502;47.182;27.506;2022-12-20T13:59:39;101403.22;;;2.92;82.74
47738;BME280;33502;47.182;27.506;2022-12-20T14:02:17;101392.66;;;2.80;84.35
47738;BME280;33502;47.182;27.506;2022-12-20T14:04:49;101387.38;;;2.71;85.44
47738;BME280;33502;47.182;27.506;2022-12-20T14:07:18;101382.09;;;2.60;86.68
47738;BME280;33502;47.182;27.506;2022-12-20T14:09:45;101376.84;;;2.59;87.89
47738;BME280;33502;47.182;27.506;2022-12-20T14:12:14;101367.19;;;2.51;89.27
47738;BME280;33502;47.182;27.506;2022-12-20T14:14:46;101366.31;;;2.49;90.11
47738;BME280;33502;47.182;27.506;2022-12-20T14:17:26;101366.28;;;2.43;91.57
47738;BME280;33502;47.182;27.506;2022-12-20T14:22:27;101367.06;;;2.33;93.54
47738;BME280;33502;47.182;27.506;2022-12-20T14:24:53;101375.72;;;2.27;94.33
47738;BME280;33502;47.182;27.506;2022-12-20T14:27:18;101366.13;;;2.22;94.99
47738;BME280;33502;47.182;27.506;2022-12-20T14:29:44;101375.66;;;2.20;95.95
47738;BME280;33502;47.182;27.506;2022-12-20T14:32:18;101383.44;;;2.13;97.13
47738;BME280;33502;47.182;27.506;2022-12-20T14:34:44;101372.09;;;2.07;98.26
47738;BME280;33502;47.182;27.506;2022-12-20T14:37:28;101361.56;;;1.99;98.89
47738;BME280;33502;47.182;27.506;2022-12-20T14:42:21;101355.41;;;1.94;100.00
47738;BME280;33502;47.182;27.506;2022-12-20T14:44:47;101349.31;;;1.92;99.98
47738;BME280;33502;47.182;27.506;2022-12-20T14:47:17;101363.22;;;1.92;100.00
47738;BME280;33502;47.182;27.506;2022-12-20T14:49:48;101361.47;;;1.88;100.00
47738;BME280;33502;47.182;27.506;2022-12-20T14:52:23;101349.25;;;1.86;100.00
47738;BME280;33502;47.182;27.506;2022-12-20T14:54:59;101365.75;;;1.83;100.00
47738;BME280;33502;47.182;27.506;2022-12-20T15:00:22;101342.19;;;1.77;100.00
47738;BME280;33502;47.182;27.506;2022-12-20T15:10:36;101337.84;;;1.77;100.00
47738;BME280;33502;47.182;27.506;2022-12-20T15:13:02;101338.75;;;1.78;100.00
47738;BME280;33502;47.182;27.506;2022-12-20T15:15:27;101343.88;;;1.70;100.00